Date,TemperatureHighF,TemperatureAvgF,TemperatureLowF,DewpointHighF,DewpointAvgF,DewpointLowF,HumidityHigh,HumidityAvg,HumidityLow,PressureMaxIn,PressureMinIn,WindSpeedMaxMPH,WindSpeedAvgMPH,GustSpeedMaxMPH,PrecipitationSumIn
2013-3-4,33,32,32,25,25,24,74,73,72,29.74,29.73,3,1,11,0.00
2013-3-5,46,36,30,32,27,23,89,71,51,30.06,29.75,7,1,9,0.00
2013-3-6,39,36,33,35,32,30,89,87,80,30.10,30.04,7,1,11,0.08
2013-3-7,34,32,30,31,29,27,95,90,82,30.09,30.00,13,5,27,0.07
2013-3-8,40,33,29,33,29,23,97,86,59,30.15,29.95,13,4,18,0.20
2013-3-9,53,37,23,30,23,17,94,61,26,30.35,30.15,9,2,13,0.14
2013-3-10,46,33,18,32,27,17,95,79,56,30.41,30.29,7,1,10,0.01
2013-3-11,51,41,31,39,34,29,93,77,53,30.31,30.13,9,3,14,0.00
2013-3-12,55,47,34,52,46,32,97,93,83,30.13,29.70,13,3,20,0.34
2013-3-13,50,42,32,48,30,19,94,64,34,29.77,29.69,12,4,20,0.00
2013-3-14,35,30,22,25,15,6,68,53,44,29.83,29.70,15,7,23,0.00
2013-3-15,39,29,19,29,14,5,85,54,28,29.86,29.63,13,5,23,0.00
2013-3-16,38,32,27,26,15,9,74,51,33,29.88,29.67,11,2,14,0.00
2013-3-17,36,28,19,17,11,4,89,52,29,30.31,29.87,13,3,20,0.00
2013-3-18,37,27,15,26,8,-1,92,47,22,30.45,30.23,6,2,13,0.00
2013-3-19,33,31,27,32,30,24,96,95,90,30.22,29.64,12,4,17,0.17
2013-3-20,37,29,20,24,22,18,95,76,52,29.80,29.70,17,5,23,0.29
2013-3-21,38,28,16,27,19,15,95,75,41,29.80,29.60,9,1,11,0.19
2013-3-22,38,32,27,25,19,16,91,59,43,29.73,29.60,14,4,20,0.01
2013-3-23,43,34,26,23,19,17,79,56,36,29.78,29.63,22,6,28,0.00
2013-3-24,46,36,29,27,23,20,87,59,42,29.80,29.72,12,4,17,0.00
2013-3-25,42,35,27,32,28,24,92,76,65,29.76,29.52,13,3,19,0.00
2013-3-26,48,40,35,29,25,19,75,58,33,29.77,29.54,11,3,15,0.00
2013-3-27,51,42,27,31,24,21,84,52,34,29.86,29.73,10,3,18,0.00
2013-3-28,48,42,35,35,33,30,91,71,49,30.01,29.87,9,3,13,0.01
2013-3-29,56,45,32,35,31,27,85,60,34,30.04,29.96,8,2,18,0.00
2013-3-30,55,45,30,33,24,14,82,50,20,30.08,29.99,13,3,16,0.00
2013-3-31,58,45,24,40,28,21,92,57,25,30.11,29.72,15,4,23,0.06
2013-4-1,60,45,34,43,35,11,95,72,34,29.78,29.49,21,6,33,0.22
2013-4-2,38,33,28,17,13,9,55,43,31,29.92,29.78,21,9,36,0.00
2013-4-3,44,36,29,17,13,8,54,40,24,30.15,29.91,22,9,32,0.00
2013-4-4,54,42,27,24,16,10,64,38,20,30.29,30.03,12,5,18,0.00
2013-4-5,60,44,35,29,26,18,75,53,21,30.03,29.62,15,5,18,0.00
2013-4-6,45,36,27,25,12,3,64,41,19,30.32,29.88,14,4,19,0.00
2013-4-7,56,40,23,38,25,15,81,57,32,30.33,29.98,20,4,31,0.00
2013-4-8,65,50,35,43,38,33,97,68,30,30.07,29.94,8,2,15,0.00
2013-4-9,68,55,45,52,44,40,94,69,45,30.06,29.85,17,4,23,0.03
2013-4-10,62,51,45,49,46,42,95,83,62,30.01,29.84,7,1,11,0.23
2013-4-11,53,46,39,48,37,25,96,73,43,30.13,29.83,10,3,13,0.04
2013-4-12,40,37,35,36,34,31,95,90,77,30.16,29.80,14,3,18,0.43
2013-4-13,52,43,35,40,36,33,95,79,55,29.93,29.77,10,2,13,0.07
2013-4-14,51,44,37,39,32,27,93,64,41,30.20,29.90,18,4,22,0.00
2013-4-15,59,45,29,38,32,27,94,63,37,30.37,30.21,9,2,13,0.00
2013-4-16,66,51,32,51,42,31,96,73,47,30.38,30.04,19,5,24,0.00
2013-4-17,65,58,52,53,38,28,89,52,25,30.24,30.04,12,5,18,0.00
2013-4-19,67,62,64,62,54,-100,88,82,84,29.70,0.00,18,-39,23,0.00
2013-4-20,67,52,42,62,40,23,94,65,37,30.20,29.58,18,5,23,0.33
2013-4-21,52,41,30,28,22,18,86,49,26,30.67,30.22,12,4,20,0.00
2013-4-22,51,42,28,33,29,20,94,64,31,30.74,30.59,15,4,19,0.00
2013-4-23,41,39,36,39,36,30,95,90,75,30.59,30.14,7,3,17,0.01
2013-4-24,75,56,40,52,44,36,96,69,25,30.11,29.77,12,4,16,0.00
2013-4-25,62,53,38,52,35,24,92,55,25,30.26,29.80,16,5,20,0.01
2013-4-26,60,48,31,38,33,29,95,62,36,30.42,30.26,11,3,18,0.01
2013-4-27,65,50,33,40,35,31,96,61,32,30.41,30.26,6,1,12,0.00
2013-4-28,70,53,34,44,36,32,96,59,29,30.32,30.18,12,2,16,0.00
2013-4-29,68,55,40,48,37,24,86,54,30,30.25,30.16,12,3,19,0.00
2013-4-30,69,56,41,39,30,22,74,42,19,30.35,30.23,8,2,14,0.00
2013-5-1,70,53,33,41,34,30,94,54,26,30.45,30.35,10,2,15,0.00
2013-5-2,77,55,38,47,40,34,95,61,25,30.48,30.32,13,2,21,0.00
2013-5-3,60,50,39,45,40,36,92,72,53,30.52,30.37,12,3,17,0.00
2013-5-4,62,49,35,46,36,17,97,68,19,30.37,30.27,12,3,17,0.00
2013-5-5,61,47,30,42,37,29,97,72,43,30.33,30.23,13,2,14,0.00
2013-5-6,74,52,31,50,41,30,97,71,26,30.27,30.12,7,2,12,0.00
2013-5-7,78,62,40,58,50,39,97,70,40,30.16,30.05,8,2,13,0.01
2013-5-8,72,60,48,64,57,48,98,89,67,30.18,30.03,8,2,16,0.17
2013-5-9,67,60,56,61,58,55,98,94,75,30.03,29.87,4,1,7,0.19
2013-5-10,79,64,49,60,56,49,98,76,42,29.94,29.86,12,1,14,0.02
2013-5-11,69,63,58,62,59,54,96,87,76,29.89,29.67,13,3,22,0.16
2013-5-12,69,60,48,60,50,30,97,73,38,29.79,29.55,17,3,23,0.05
2013-5-13,56,47,35,34,31,27,87,56,35,30.02,29.80,14,4,20,0.01
2013-5-14,57,47,36,36,31,27,83,57,34,30.05,29.96,16,2,18,0.00
2013-5-15,64,50,31,52,40,30,97,74,32,30.04,29.66,10,3,19,0.03
2013-5-16,79,66,44,51,41,31,97,47,21,29.79,29.62,20,5,33,0.01
2013-5-17,69,58,44,44,41,34,86,55,31,30.20,29.80,14,3,21,0.00
2013-5-18,73,57,37,49,42,36,97,62,28,30.29,30.20,9,1,14,0.00
2013-5-19,70,55,43,54,50,42,97,84,49,30.33,30.20,11,1,13,0.07
2013-5-20,80,67,55,66,60,54,97,81,57,30.19,29.89,13,2,16,0.05
2013-5-21,81,62,50,69,58,49,98,87,65,30.00,29.84,8,2,17,0.01
2013-5-22,68,57,50,63,54,48,97,91,77,30.06,29.86,9,2,15,0.35
2013-5-23,74,63,53,69,61,52,98,93,82,29.91,29.78,9,2,19,0.02
2013-5-24,72,62,47,65,59,46,98,90,76,29.82,29.62,8,3,18,0.03
2013-5-25,49,46,41,48,44,38,96,94,90,29.82,29.71,10,4,19,0.00
2013-5-26,56,47,39,42,39,37,93,74,52,30.09,29.71,15,4,24,0.01
2013-5-27,71,55,37,44,39,34,96,61,28,30.16,30.06,16,3,20,0.00
2013-5-28,75,57,39,51,45,38,97,69,32,30.22,30.14,7,1,13,0.01
2013-5-29,70,62,53,65,60,51,97,92,83,30.17,29.96,6,1,11,0.01
2013-5-30,87,72,64,69,65,62,96,81,48,30.06,29.98,11,3,15,0.01
2013-5-31,91,79,62,73,66,61,96,66,39,30.06,29.91,10,3,16,0.00
2013-6-1,90,80,65,70,66,62,91,64,39,29.95,29.82,14,3,17,0.01
2013-6-2,88,77,66,72,67,63,93,74,44,29.85,29.68,14,4,26,0.00
2013-6-3,78,68,58,68,61,45,96,81,54,29.83,29.73,9,2,15,0.00
2013-6-4,70,60,47,49,45,40,91,59,41,30.08,29.81,13,3,19,0.01
2013-6-5,74,60,44,54,48,43,97,68,33,30.18,30.07,6,1,13,0.00
2013-6-6,73,62,49,55,51,47,96,70,47,30.17,30.07,8,1,11,0.00
2013-6-7,57,55,52,56,53,51,97,95,91,30.09,29.82,8,2,13,0.00
2013-6-8,77,62,52,64,57,51,97,85,62,29.98,29.62,11,3,15,0.01
2013-6-9,78,66,52,59,56,51,97,73,45,30.14,29.99,10,3,19,0.00
2013-6-10,68,61,54,60,57,52,97,86,70,30.18,30.00,5,2,10,0.01
2013-6-11,61,57,55,58,56,54,97,94,87,29.99,29.57,7,2,10,0.00
2013-6-12,68,62,55,57,55,53,97,79,60,29.80,29.55,23,4,25,0.01
2013-6-13,65,56,49,59,53,48,97,90,72,29.80,29.68,9,1,10,0.00
2013-6-14,75,60,51,59,54,50,97,82,46,29.76,29.64,9,2,14,0.00
2013-6-15,77,65,54,55,49,42,92,60,29,29.92,29.77,10,2,17,0.01
2013-6-16,74,66,53,62,55,48,93,70,50,29.92,29.68,13,2,13,0.00
2013-6-17,82,67,55,67,60,54,97,79,47,29.88,29.76,14,2,17,0.00
2013-6-18,73,62,55,65,59,55,98,91,73,29.93,29.87,8,1,16,0.00
2013-6-19,75,63,51,57,53,48,97,74,39,30.13,29.90,5,1,11,0.00
2013-6-20,77,64,46,57,52,46,98,69,36,30.25,30.14,8,2,17,0.00
2013-6-21,84,69,54,63,58,52,95,70,34,30.22,30.16,10,2,14,0.00
2013-6-22,83,72,60,67,62,58,93,72,47,30.20,30.08,12,3,18,0.00
2013-6-23,89,76,62,75,66,59,89,73,56,30.13,29.96,12,3,18,0.00
2013-6-24,91,78,69,74,69,64,93,75,53,29.99,29.84,11,3,21,0.00
2013-6-25,89,78,68,72,68,65,93,73,52,29.90,29.69,13,3,16,0.00
2013-6-26,82,74,68,73,69,66,96,83,67,29.83,29.70,10,2,11,0.00
2013-6-27,72,66,62,68,65,61,97,94,86,29.84,29.73,5,2,10,0.00
2013-6-28,81,69,58,74,66,58,98,92,73,29.74,29.46,9,2,17,0.00
2013-6-29,82,75,70,72,69,67,95,82,63,29.69,29.48,11,3,18,0.00
2013-6-30,85,75,65,73,69,64,97,82,60,29.91,29.69,8,2,15,0.00
2013-7-1,80,74,70,74,71,69,97,92,81,30.04,29.91,6,1,9,0.00
2013-7-2,84,73,62,75,70,60,98,89,73,30.18,30.04,9,2,13,0.00
2013-7-3,86,74,61,75,69,60,97,84,63,30.18,30.11,11,3,15,0.00
2013-7-4,90,81,73,76,73,71,92,77,61,30.17,30.06,12,4,15,0.00
2013-7-5,91,82,75,77,74,72,89,76,58,30.13,30.00,8,3,13,0.00
2013-7-6,89,80,68,75,71,64,97,77,51,30.05,29.96,10,3,18,0.00
2013-7-7,90,76,64,79,70,63,97,83,60,30.00,29.88,8,1,9,0.00
2013-7-8,84,76,67,76,72,65,98,88,71,30.04,29.88,7,1,15,0.00
2013-7-9,72,68,64,69,66,64,97,92,87,30.09,30.03,5,1,7,0.00
2013-7-10,85,73,66,76,70,64,97,92,73,30.05,29.77,9,1,15,0.00
2013-7-11,81,74,69,75,72,66,98,91,78,29.91,29.75,7,1,11,0.00
2013-7-12,77,70,63,65,61,57,90,74,53,30.18,29.91,9,2,16,0.00
2013-7-13,78,70,63,71,66,60,97,86,79,30.29,30.18,5,1,8,0.00
2013-7-14,89,78,68,76,72,68,98,83,54,30.28,30.18,6,1,10,0.00
2013-7-15,91,79,68,78,72,67,98,81,50,30.18,30.07,5,1,9,0.00
2013-7-16,92,80,65,74,69,64,97,73,47,30.14,30.08,8,1,15,0.00
2013-7-17,92,80,66,75,71,66,98,76,49,30.16,29.96,6,1,10,0.00
2013-7-18,93,82,72,76,73,69,91,75,54,29.98,29.91,7,2,10,0.00
2013-7-19,94,83,69,78,73,68,97,75,52,29.91,29.68,14,4,22,0.00
2013-7-20,89,82,71,77,73,63,92,74,56,29.78,29.63,12,3,16,0.02
2013-7-21,81,74,65,69,65,61,95,74,62,29.96,29.79,8,2,12,0.00
2013-7-22,82,71,62,71,66,61,98,87,65,30.00,29.86,7,1,10,0.00
2013-7-23,78,71,68,75,70,66,98,95,88,29.86,29.51,4,1,15,0.42
2013-7-24,82,74,64,72,67,54,99,78,56,29.94,29.56,12,3,17,0.04
2013-7-25,63,60,57,58,54,48,96,81,69,30.09,29.95,6,2,14,0.01
2013-7-26,74,65,59,67,62,57,96,90,77,30.05,29.93,9,2,13,0.01
2013-7-27,81,70,58,70,63,56,96,79,51,30.03,29.96,9,1,11,0.00
2013-7-28,83,70,60,72,66,59,98,88,61,30.00,29.93,7,1,11,0.00
2013-7-29,83,72,65,73,68,63,98,89,67,30.02,29.93,11,1,16,0.00
2013-7-30,80,70,61,64,59,56,96,70,45,30.07,30.01,8,2,15,0.00
2013-7-31,80,69,56,67,60,55,97,75,48,30.12,30.01,4,1,16,0.00
2013-8-1,78,66,57,68,63,56,98,88,64,30.03,29.86,9,1,14,0.00
2013-8-2,80,70,63,68,63,58,97,81,48,29.86,29.77,14,2,27,0.00
2013-8-3,70,65,61,64,62,60,96,90,79,29.84,29.79,6,1,12,0.00